• Join FlightAware (Why Join?)
  • Login
  • US Flag 
Rudolph Flight #1: Arrived! 
05:35AM EST


 

Airport Tracker/Info


-or-


 

Live Flight TrackerFlight Track Log ✈ SWA1628 ✈ 28-Jun-2013 ✈ KBWI - KPIT

Flight Track Log - Related Links

Times and Time Zones

All times are in EDT time to prevent confusion due to time zone crossing. See the SWA1628 flight status page for this flight to view local times or setup timezone preferences in your user account.

Time Position Orientation Groundspeed Altitude Reporting Facility
EDT Latitude Longitude Course Direction KTS MPH feet Rate Location/Type
10:15PM 39.1906 -76.8261 322° Northwest 220 253 5,900  Level Washington Center
10:16PM 39.2083 -76.9147 285° West 232 267 9,900 3,420 Climbing Washington Center
10:17PM 39.2156 -77.0142 275° West 253 291 12,900 3,180 Climbing Washington Center
10:18PM 39.2539 -77.1247 294° West 286 329 16,200 3,300 Climbing Washington Center
10:19PM 39.3003 -77.2356 298° West 329 379 19,400 1,860 Climbing Washington Center
10:20PM 39.2396 -77.1730 322° Northwest  Level FlightAware Approximate
10:20PM 39.3447 -77.3358 300° West 329 379 20,000  Level Washington Center
10:21PM 39.3911 -77.4417 300° West 329 379 20,000  Level Washington Center
10:22PM 39.4414 -77.5586 299° West 329 379 20,000  Level Washington Center
10:23PM 39.4792 -77.6700 294° West 329 379 20,000  Level Washington Center
10:24PM 39.5144 -77.7839 292° West 329 379 20,000  Level Washington Center
10:25PM 39.5478 -77.8953 291° West 334 384 20,000  Level Washington Center
10:27PM 39.6039 -78.0800 292° West 337 388 20,000  Level Cleveland Center
10:28PM 39.6378 -78.1947 291° West 342 394 20,000  Level Cleveland Center
10:29PM 39.6714 -78.3122 290° West 348 400 20,000  Level Cleveland Center
10:30PM 39.7069 -78.4244 292° West 343 395 20,000  Level Cleveland Center
10:31PM 39.7403 -78.5394 291° West 343 395 20,000  Level Cleveland Center
10:32PM 39.7736 -78.6544 291° West 343 395 20,000  Level Cleveland Center
10:33PM 39.8003 -78.7564 289° West 343 395 20,000  Level Cleveland Center
10:34PM 39.8333 -78.8717 291° West 343 395 20,000  Level Cleveland Center
10:35PM 39.8706 -78.9900 292° West 343 395 20,000  Level Cleveland Center
10:36PM 39.9053 -79.1056 291° West 348 400 20,000 -180 Level Cleveland Center
10:37PM 39.9361 -79.2186 290° West 348 400 19,700 -1,380 Descending Cleveland Center
10:38PM 39.9664 -79.3236 291° West 330 380 17,300 -2,100 Descending Cleveland Center
10:39PM 40.0092 -79.4150 301° West 309 356 15,600 -1,620 Descending Cleveland Center
10:40PM 40.0578 -79.5036 306° West 301 346 14,100 -1,800 Descending Cleveland Center
10:41PM 40.0881 -79.6033 292° West 289 333 12,100 -1,860 Descending Cleveland Center
10:42PM 40.1158 -79.6981 291° West 289 333 10,400 -1,560 Descending Cleveland Center
10:43PM 40.1500 -79.7900 296° West 289 333 9,000 -1,440 Descending Cleveland Center
10:44PM 40.2044 -79.8572 317° Northwest 274 315 7,600 -1,320 Descending Cleveland Center
10:45PM 40.2569 -79.9247 316° Northwest 263 303 6,400 -1,140 Descending Cleveland Center
10:46PM 40.3053 -79.9842 317° Northwest 256 295 5,400 -900 Descending Cleveland Center
10:47PM 40.3494 -80.0408 316° Northwest 236 272 4,600 -840 Descending Cleveland Center
10:49PM 40.4648 -80.1802 308° West  Level FlightAware Approximate
10:56PM 40.4833 -80.2167 303° West  Level FlightAware Approximate
10:57PM 40.4915 -80.2329 303° West  Level Estimated
10:58PM 40.4915 -80.2329 303° West  Level Estimated
10:59PM 40.4915 -80.2329 303° West  Level Estimated